createdAt,value
2022-11-28T00:00:10.859Z,7
2022-11-28T00:01:10.857Z,7
2022-11-28T00:02:10.998Z,6
2022-11-28T00:03:11.074Z,6
2022-11-28T00:04:10.841Z,6
2022-11-28T00:05:10.874Z,7
2022-11-28T00:06:10.868Z,7
2022-11-28T00:07:10.859Z,5
2022-11-28T00:08:10.842Z,6
2022-11-28T00:09:10.849Z,6
2022-11-28T00:10:10.888Z,6
2022-11-28T00:11:10.865Z,7
2022-11-28T00:12:10.866Z,7
2022-11-28T00:13:10.860Z,8
2022-11-28T00:14:10.848Z,6
2022-11-28T00:15:10.932Z,5
2022-11-28T00:16:10.928Z,6
2022-11-28T00:17:10.879Z,8
2022-11-28T00:18:10.873Z,7
2022-11-28T00:19:10.869Z,9
2022-11-28T00:20:10.866Z,7
2022-11-28T00:21:10.854Z,8
2022-11-28T00:22:10.848Z,8
2022-11-28T00:23:10.875Z,7
2022-11-28T00:24:10.871Z,9
2022-11-28T00:25:10.873Z,7
2022-11-28T00:26:10.868Z,8
2022-11-28T00:27:10.881Z,6
2022-11-28T00:28:10.976Z,8
2022-11-28T00:29:12.377Z,8
2022-11-28T00:30:10.860Z,7
2022-11-28T00:31:10.871Z,8
2022-11-28T00:32:10.901Z,6
2022-11-28T00:33:10.862Z,8
2022-11-28T00:34:10.883Z,8
2022-11-28T00:35:10.875Z,7
2022-11-28T00:36:10.871Z,6
2022-11-28T00:37:10.855Z,8
2022-11-28T00:38:10.851Z,9
2022-11-28T00:39:10.855Z,9
2022-11-28T00:40:10.870Z,7
2022-11-28T00:41:10.921Z,8
2022-11-28T00:42:10.873Z,10
2022-11-28T00:43:10.862Z,7
2022-11-28T00:44:10.885Z,7
2022-11-28T00:45:10.884Z,6
2022-11-28T00:46:11.031Z,8
2022-11-28T00:47:10.870Z,8
2022-11-28T00:48:10.882Z,7
2022-11-28T00:49:10.864Z,7
2022-11-28T00:50:10.927Z,6
2022-11-28T00:51:10.859Z,7
2022-11-28T00:52:10.890Z,9
2022-11-28T00:53:10.868Z,7
2022-11-28T00:54:10.888Z,8
2022-11-28T00:55:10.907Z,7
2022-11-28T00:56:10.890Z,7
2022-11-28T00:57:10.898Z,7
2022-11-28T00:58:10.897Z,9
2022-11-28T00:59:11.000Z,8
2022-11-28T01:00:10.890Z,9
2022-11-28T01:01:11.023Z,6
2022-11-28T01:02:10.924Z,7
2022-11-28T01:03:10.880Z,6
2022-11-28T01:04:10.900Z,8
2022-11-28T01:05:10.857Z,5
2022-11-28T01:06:10.863Z,6
2022-11-28T01:07:10.877Z,6
2022-11-28T01:08:10.880Z,7
2022-11-28T01:09:10.881Z,6
2022-11-28T01:10:10.879Z,7
2022-11-28T01:11:10.877Z,8
2022-11-28T01:12:10.860Z,8
2022-11-28T01:13:10.872Z,6
2022-11-28T01:14:10.875Z,6
2022-11-28T01:15:10.880Z,7
2022-11-28T01:16:10.994Z,5
2022-11-28T01:17:10.886Z,6
2022-11-28T01:18:10.876Z,6
2022-11-28T01:19:10.883Z,7
2022-11-28T01:20:10.886Z,6
2022-11-28T01:21:10.896Z,7
2022-11-28T01:22:10.896Z,6
2022-11-28T01:23:10.872Z,7
2022-11-28T01:24:10.869Z,6
2022-11-28T01:25:10.909Z,8
2022-11-28T01:26:10.896Z,6
2022-11-28T01:27:10.889Z,6
2022-11-28T01:29:10.868Z,7
2022-11-28T01:30:10.999Z,7
2022-11-28T01:31:10.955Z,7
2022-11-28T01:32:10.883Z,7
2022-11-28T01:33:10.975Z,7
2022-11-28T01:34:10.885Z,6
2022-11-28T01:35:10.888Z,6
2022-11-28T01:36:10.880Z,6
2022-11-28T01:37:10.897Z,6
2022-11-28T01:38:10.885Z,6
2022-11-28T01:39:10.886Z,6
2022-11-28T01:40:10.896Z,6
2022-11-28T01:41:10.882Z,6
2022-11-28T01:42:10.871Z,6
2022-11-28T01:43:10.887Z,6
2022-11-28T01:44:10.895Z,6
2022-11-28T01:45:10.887Z,5
2022-11-28T01:46:11.016Z,6
2022-11-28T01:47:10.965Z,7
2022-11-28T01:48:10.887Z,5
2022-11-28T01:49:10.894Z,8
2022-11-28T01:50:10.898Z,7
2022-11-28T01:51:10.889Z,7
2022-11-28T01:52:10.879Z,5
2022-11-28T01:53:10.884Z,7
2022-11-28T01:54:10.896Z,6
2022-11-28T01:55:10.892Z,8
2022-11-28T01:56:10.909Z,6
2022-11-28T01:57:10.891Z,8
2022-11-28T01:58:10.895Z,8
2022-11-28T01:59:10.877Z,5
2022-11-28T02:00:10.873Z,6
2022-11-28T02:01:11.074Z,6
2022-11-28T02:02:10.958Z,12
2022-11-28T02:03:10.899Z,7
2022-11-28T02:04:10.899Z,8
2022-11-28T02:05:10.897Z,7
2022-11-28T02:06:10.901Z,7
2022-11-28T02:07:10.935Z,5
2022-11-28T02:08:10.890Z,6
2022-11-28T02:09:10.889Z,6
2022-11-28T02:10:10.896Z,6
2022-11-28T02:11:10.897Z,5
2022-11-28T02:12:10.895Z,5
2022-11-28T02:13:10.893Z,6
2022-11-28T02:14:10.878Z,7
2022-11-28T02:15:10.885Z,6
2022-11-28T02:16:10.925Z,5
2022-11-28T02:17:10.897Z,7
2022-11-28T02:18:10.911Z,5
2022-11-28T02:19:10.884Z,7
2022-11-28T02:20:10.881Z,5
2022-11-28T02:21:10.898Z,6
2022-11-28T02:22:10.899Z,8
2022-11-28T02:23:10.890Z,6
2022-11-28T02:24:10.892Z,7
2022-11-28T02:25:10.895Z,8
2022-11-28T02:27:10.886Z,9
2022-11-28T02:28:10.895Z,7
2022-11-28T02:29:10.952Z,6
2022-11-28T02:30:10.887Z,8
2022-11-28T02:31:11.008Z,7
2022-11-28T02:32:11.024Z,7
2022-11-28T02:33:10.888Z,9
2022-11-28T02:34:10.899Z,7
2022-11-28T02:35:10.905Z,6
2022-11-28T02:36:10.894Z,10
2022-11-28T02:37:10.879Z,8
2022-11-28T02:38:10.883Z,9
2022-11-28T02:39:10.883Z,6
2022-11-28T02:40:10.890Z,7
2022-11-28T02:41:10.893Z,7
2022-11-28T02:42:10.922Z,8
2022-11-28T02:43:10.902Z,6
2022-11-28T02:44:10.888Z,7
2022-11-28T02:45:10.892Z,8
2022-11-28T02:46:10.891Z,6
2022-11-28T02:47:11.109Z,9
2022-11-28T02:48:10.886Z,8
2022-11-28T02:49:10.888Z,6
2022-11-28T02:50:10.889Z,6
2022-11-28T02:51:10.885Z,8
2022-11-28T02:52:10.891Z,6
2022-11-28T02:53:10.902Z,5
2022-11-28T02:54:10.911Z,5
2022-11-28T02:55:10.888Z,6
2022-11-28T02:56:10.892Z,7
2022-11-28T02:57:10.927Z,8
2022-11-28T02:58:10.920Z,7
2022-11-28T02:59:10.904Z,9
2022-11-28T03:00:16.534Z,8
2022-11-28T03:01:10.957Z,6
2022-11-28T03:02:11.037Z,6
2022-11-28T03:03:11.022Z,7
2022-11-28T03:04:10.893Z,7
2022-11-28T03:05:10.892Z,8
2022-11-28T03:06:10.913Z,6
2022-11-28T03:07:10.891Z,6
2022-11-28T03:08:10.907Z,7
2022-11-28T03:09:10.900Z,7
2022-11-28T03:10:10.895Z,7
2022-11-28T03:11:10.898Z,7
2022-11-28T03:12:10.902Z,5
2022-11-28T03:13:10.903Z,6
2022-11-28T03:14:10.897Z,9
2022-11-28T03:15:10.935Z,6
2022-11-28T03:16:11.063Z,7
2022-11-28T03:17:10.896Z,7
2022-11-28T03:18:10.896Z,7
2022-11-28T03:19:10.912Z,7
2022-11-28T03:20:10.892Z,6
2022-11-28T03:21:10.911Z,6
2022-11-28T03:22:10.908Z,7
2022-11-28T03:23:10.915Z,6
2022-11-28T03:24:10.899Z,7
2022-11-28T03:25:10.903Z,7
2022-11-28T03:26:10.920Z,6
2022-11-28T03:27:10.929Z,8
2022-11-28T03:29:10.899Z,9
2022-11-28T03:30:10.900Z,7
2022-11-28T03:31:10.955Z,7
2022-11-28T03:32:10.926Z,7
2022-11-28T03:33:10.918Z,9
2022-11-28T03:34:11.024Z,6
2022-11-28T03:35:10.904Z,8
2022-11-28T03:36:10.904Z,7
2022-11-28T03:37:10.905Z,6
2022-11-28T03:38:10.910Z,8
2022-11-28T03:39:11.902Z,8
2022-11-28T03:40:10.902Z,8
2022-11-28T03:41:10.906Z,6
2022-11-28T03:42:10.909Z,7
2022-11-28T03:43:10.914Z,8
2022-11-28T03:44:10.929Z,7
2022-11-28T03:45:10.920Z,8
2022-11-28T03:46:10.899Z,8
2022-11-28T03:47:10.986Z,7
2022-11-28T03:48:10.911Z,7
2022-11-28T03:49:10.914Z,6
2022-11-28T03:50:10.913Z,7
2022-11-28T03:51:10.942Z,7
2022-11-28T03:52:10.911Z,7
2022-11-28T03:53:10.921Z,5
2022-11-28T03:54:10.910Z,6
2022-11-28T03:55:10.908Z,6
2022-11-28T03:56:10.975Z,7
2022-11-28T03:57:10.905Z,7
2022-11-28T03:58:10.896Z,7
2022-11-28T03:59:10.901Z,7
2022-11-28T04:00:10.906Z,8
2022-11-28T04:01:10.954Z,7
2022-11-28T04:02:10.896Z,7
2022-11-28T04:03:10.999Z,7
2022-11-28T04:04:10.909Z,7
2022-11-28T04:05:11.035Z,6
2022-11-28T04:06:10.919Z,7
2022-11-28T04:07:10.944Z,7
2022-11-28T04:08:10.973Z,6
2022-11-28T04:09:14.403Z,6
2022-11-28T04:10:10.901Z,6
2022-11-28T04:11:10.914Z,7
2022-11-28T04:12:10.940Z,8
2022-11-28T04:13:10.941Z,8
2022-11-28T04:14:10.903Z,7
2022-11-28T04:15:10.919Z,8
2022-11-28T04:16:10.933Z,7
2022-11-28T04:17:10.918Z,6
2022-11-28T04:18:10.916Z,10
2022-11-28T04:19:10.911Z,7
2022-11-28T04:20:10.917Z,8
2022-11-28T04:21:10.923Z,6
2022-11-28T04:22:10.926Z,7
2022-11-28T04:23:10.925Z,7
2022-11-28T04:24:10.912Z,8
2022-11-28T04:25:10.941Z,8
2022-11-28T04:26:10.927Z,7
2022-11-28T04:27:10.945Z,9
2022-11-28T04:28:12.077Z,9
2022-11-28T04:29:10.937Z,7
2022-11-28T04:30:10.942Z,9
2022-11-28T04:31:10.979Z,7
2022-11-28T04:32:10.940Z,6
2022-11-28T04:33:10.930Z,9
2022-11-28T04:34:10.931Z,9
2022-11-28T04:35:10.929Z,7
2022-11-28T04:36:11.063Z,7
2022-11-28T04:37:10.912Z,7
2022-11-28T04:38:10.922Z,9
2022-11-28T04:39:17.849Z,7
2022-11-28T04:40:10.917Z,7
2022-11-28T04:41:10.921Z,9
2022-11-28T04:42:10.917Z,7
2022-11-28T04:43:10.917Z,9
2022-11-28T04:44:10.921Z,8
2022-11-28T04:45:10.918Z,7
2022-11-28T04:46:10.968Z,9
2022-11-28T04:47:10.924Z,7
2022-11-28T04:48:10.922Z,7
2022-11-28T04:49:10.922Z,9
2022-11-28T04:50:10.931Z,9
2022-11-28T04:51:10.950Z,9
2022-11-28T04:52:10.935Z,8
2022-11-28T04:53:10.932Z,11
2022-11-28T04:54:10.928Z,9
2022-11-28T04:55:10.923Z,10
2022-11-28T04:56:10.920Z,8
2022-11-28T04:57:10.926Z,8
2022-11-28T04:58:10.938Z,10
2022-11-28T04:59:10.995Z,9
2022-11-28T05:00:10.931Z,7
2022-11-28T05:01:10.988Z,7
2022-11-28T05:02:10.992Z,10
2022-11-28T05:03:10.951Z,9
2022-11-28T05:04:10.922Z,8
2022-11-28T05:05:10.928Z,8
2022-11-28T05:06:10.924Z,8
2022-11-28T05:07:11.041Z,7
2022-11-28T05:08:10.930Z,7
2022-11-28T05:09:10.934Z,8
2022-11-28T05:10:10.935Z,7
2022-11-28T05:11:10.926Z,7
2022-11-28T05:12:10.924Z,8
2022-11-28T05:13:10.923Z,8
2022-11-28T05:14:10.932Z,7
2022-11-28T05:15:10.948Z,8
2022-11-28T05:16:10.998Z,10
2022-11-28T05:17:10.922Z,7
2022-11-28T05:18:10.924Z,9
2022-11-28T05:19:10.926Z,7
2022-11-28T05:20:10.931Z,7
2022-11-28T05:21:10.949Z,8
2022-11-28T05:22:10.939Z,8
2022-11-28T05:23:10.925Z,8
2022-11-28T05:24:11.908Z,7
2022-11-28T05:25:10.939Z,8
2022-11-28T05:26:10.955Z,8
2022-11-28T05:27:10.961Z,7
2022-11-28T05:28:10.933Z,8
2022-11-28T05:29:10.931Z,8
2022-11-28T05:30:10.948Z,6
2022-11-28T05:31:11.028Z,7
2022-11-28T05:32:10.934Z,7
2022-11-28T05:33:10.923Z,7
2022-11-28T05:34:10.926Z,8
2022-11-28T05:35:11.000Z,7
2022-11-28T05:36:13.125Z,6
2022-11-28T05:37:10.934Z,7
2022-11-28T05:38:13.686Z,8
2022-11-28T05:40:10.934Z,8
2022-11-28T05:41:10.941Z,7
2022-11-28T05:42:10.943Z,6
2022-11-28T05:43:10.932Z,6
2022-11-28T05:44:10.929Z,9
2022-11-28T05:45:10.954Z,8
2022-11-28T05:46:11.025Z,7
2022-11-28T05:47:10.938Z,9
2022-11-28T05:48:11.012Z,8
2022-11-28T05:49:10.940Z,6
2022-11-28T05:50:10.942Z,8
2022-11-28T05:51:10.939Z,9
2022-11-28T05:52:10.936Z,6
2022-11-28T05:53:10.940Z,9
2022-11-28T05:54:10.952Z,7
2022-11-28T05:55:10.940Z,9
2022-11-28T05:56:10.937Z,7
2022-11-28T05:57:10.937Z,9
2022-11-28T05:58:10.945Z,7
2022-11-28T05:59:10.951Z,6
2022-11-28T06:00:10.934Z,8
2022-11-28T06:01:10.937Z,8
2022-11-28T06:02:11.025Z,8
2022-11-28T06:03:10.938Z,9
2022-11-28T06:04:11.019Z,10
2022-11-28T06:05:35.065Z,8
2022-11-28T06:06:11.014Z,9
2022-11-28T06:07:10.941Z,7
2022-11-28T06:08:10.955Z,18
2022-11-28T06:09:11.079Z,18
2022-11-28T06:10:10.939Z,17
2022-11-28T06:11:11.029Z,15
2022-11-28T06:12:10.955Z,11
2022-11-28T06:13:10.960Z,11
2022-11-28T06:14:10.943Z,8
2022-11-28T06:15:10.940Z,9
2022-11-28T06:16:11.065Z,9
2022-11-28T06:17:10.953Z,8
2022-11-28T06:18:10.960Z,10
2022-11-28T06:19:10.961Z,11
2022-11-28T06:20:10.985Z,9
2022-11-28T06:21:10.968Z,9
2022-11-28T06:22:10.968Z,8
2022-11-28T06:23:10.941Z,8
2022-11-28T06:24:10.980Z,9
2022-11-28T06:25:10.974Z,7
2022-11-28T06:26:10.949Z,12
2022-11-28T06:27:10.996Z,10
2022-11-28T06:28:10.943Z,7
2022-11-28T06:29:10.951Z,7
2022-11-28T06:30:10.961Z,8
2022-11-28T06:31:11.116Z,9
2022-11-28T06:32:10.992Z,8
2022-11-28T06:33:10.954Z,7
2022-11-28T06:34:10.971Z,6
2022-11-28T06:36:10.951Z,9
2022-11-28T06:37:10.949Z,9
2022-11-28T06:38:14.187Z,5
2022-11-28T06:39:10.986Z,5
2022-11-28T06:40:11.075Z,4
2022-11-28T06:41:10.958Z,5
2022-11-28T06:42:10.949Z,5
2022-11-28T06:43:10.957Z,9
2022-11-28T06:44:10.958Z,7
2022-11-28T06:45:10.956Z,7
2022-11-28T06:46:15.735Z,7
2022-11-28T06:47:10.965Z,8
2022-11-28T06:48:10.954Z,8
2022-11-28T06:49:10.951Z,9
2022-11-28T06:50:10.955Z,6
2022-11-28T06:51:10.971Z,7
2022-11-28T06:52:10.961Z,8
2022-11-28T06:53:10.968Z,8
2022-11-28T06:54:10.963Z,8
2022-11-28T06:55:10.984Z,6
2022-11-28T06:56:10.990Z,8
2022-11-28T06:57:10.974Z,7
2022-11-28T06:58:10.962Z,8
2022-11-28T06:59:10.969Z,7
2022-11-28T07:00:10.958Z,7
2022-11-28T07:01:11.123Z,8
2022-11-28T07:02:11.014Z,10
2022-11-28T07:03:10.958Z,8
2022-11-28T07:04:10.982Z,7
2022-11-28T07:05:10.978Z,7
2022-11-28T07:06:10.960Z,7
2022-11-28T07:07:16.102Z,7
2022-11-28T07:08:11.012Z,9
2022-11-28T07:09:10.965Z,10
2022-11-28T07:10:10.967Z,8
2022-11-28T07:11:11.088Z,8
2022-11-28T07:12:10.978Z,8
2022-11-28T07:13:10.968Z,9
2022-11-28T07:14:10.995Z,8
2022-11-28T07:15:10.968Z,8
2022-11-28T07:16:11.004Z,9
2022-11-28T07:17:11.024Z,7
2022-11-28T07:18:10.960Z,8
2022-11-28T07:19:10.959Z,9
2022-11-28T07:20:10.967Z,8
2022-11-28T07:21:10.982Z,7
2022-11-28T07:22:10.954Z,8
2022-11-28T07:23:10.965Z,9
2022-11-28T07:24:10.977Z,9
2022-11-28T07:25:11.023Z,9
2022-11-28T07:26:10.986Z,7
2022-11-28T07:27:10.992Z,8
2022-11-28T07:28:10.976Z,6
2022-11-28T07:29:10.958Z,10
2022-11-28T07:30:10.990Z,10
2022-11-28T07:31:10.992Z,12
2022-11-28T07:32:11.056Z,8
2022-11-28T07:33:10.987Z,8
2022-11-28T07:34:10.997Z,5
2022-11-28T07:35:10.972Z,6
2022-11-28T07:36:10.972Z,5
2022-11-28T07:37:10.983Z,4
2022-11-28T07:38:10.977Z,7
2022-11-28T07:39:10.972Z,8
2022-11-28T07:40:10.976Z,9
2022-11-28T07:41:11.010Z,8
2022-11-28T07:42:11.101Z,9
2022-11-28T07:43:10.984Z,8
2022-11-28T07:44:10.987Z,9
2022-11-28T07:45:11.015Z,7
2022-11-28T07:46:11.060Z,7
2022-11-28T07:47:10.990Z,7
2022-11-28T07:48:10.976Z,8
2022-11-28T07:49:10.989Z,10
2022-11-28T07:50:11.014Z,8
2022-11-28T07:51:10.997Z,9
2022-11-28T07:52:10.985Z,9
2022-11-28T07:53:10.981Z,9
2022-11-28T07:54:10.998Z,8
2022-11-28T07:55:10.983Z,11
2022-11-28T07:56:10.970Z,8
2022-11-28T07:57:12.506Z,9
2022-11-28T07:58:10.981Z,8
2022-11-28T07:59:11.000Z,10
2022-11-28T08:00:10.964Z,8
2022-11-28T08:01:10.975Z,8
2022-11-28T08:02:11.071Z,7
2022-11-28T08:03:10.974Z,8
2022-11-28T08:04:11.030Z,7
2022-11-28T08:05:11.078Z,5
2022-11-28T08:06:11.061Z,5
2022-11-28T08:07:10.986Z,6
2022-11-28T08:08:10.986Z,6
2022-11-28T08:09:10.970Z,5
2022-11-28T08:10:10.989Z,7
2022-11-28T08:11:10.978Z,6
2022-11-28T08:12:11.064Z,9
2022-11-28T08:13:11.022Z,6
2022-11-28T08:14:10.984Z,9
2022-11-28T08:15:10.970Z,8
2022-11-28T08:16:11.028Z,8
2022-11-28T08:17:10.991Z,7
2022-11-28T08:18:11.007Z,8
2022-11-28T08:19:10.980Z,6
2022-11-28T08:20:10.992Z,7
2022-11-28T08:21:10.986Z,8
2022-11-28T08:22:10.988Z,8
2022-11-28T08:23:11.042Z,8
2022-11-28T08:24:10.988Z,7
2022-11-28T08:25:10.991Z,8
2022-11-28T08:26:10.977Z,9
2022-11-28T08:27:10.985Z,8
2022-11-28T08:28:10.989Z,8
2022-11-28T08:29:10.985Z,9
2022-11-28T08:30:11.005Z,7
2022-11-28T08:31:11.066Z,8
2022-11-28T08:32:10.978Z,11
2022-11-28T08:33:10.997Z,8
2022-11-28T08:34:10.991Z,9
2022-11-28T08:35:10.988Z,7
2022-11-28T08:36:10.983Z,11
2022-11-28T08:37:10.983Z,8
2022-11-28T08:38:10.976Z,9
2022-11-28T08:39:26.509Z,8
2022-11-28T08:40:10.992Z,8
2022-11-28T08:41:10.996Z,9
2022-11-28T08:42:10.983Z,8
2022-11-28T08:43:10.988Z,7
2022-11-28T08:44:11.025Z,9
2022-11-28T08:45:10.986Z,9
2022-11-28T08:46:11.002Z,9
2022-11-28T08:47:10.998Z,8
2022-11-28T08:48:10.983Z,12
2022-11-28T08:49:10.990Z,8
2022-11-28T08:50:11.035Z,9
2022-11-28T08:51:10.990Z,8
2022-11-28T08:52:10.983Z,9
2022-11-28T08:53:10.989Z,9
2022-11-28T08:54:10.999Z,9
2022-11-28T08:55:10.989Z,10
2022-11-28T08:56:10.992Z,8
2022-11-28T08:57:10.986Z,9
2022-11-28T08:58:10.993Z,8
2022-11-28T08:59:10.989Z,8
2022-11-28T09:00:10.994Z,10
2022-11-28T09:01:11.015Z,9
2022-11-28T09:02:11.037Z,11
2022-11-28T09:03:10.990Z,8
2022-11-28T09:04:11.076Z,8
2022-11-28T09:05:11.015Z,11
2022-11-28T09:06:10.990Z,7
2022-11-28T09:07:10.996Z,7
2022-11-28T09:08:12.016Z,9
2022-11-28T09:09:11.011Z,10
2022-11-28T09:10:10.989Z,10
2022-11-28T09:11:11.009Z,10
2022-11-28T09:12:10.997Z,8
2022-11-28T09:13:10.990Z,11
2022-11-28T09:14:11.029Z,10
2022-11-28T09:15:11.040Z,9
2022-11-28T09:16:10.991Z,7
2022-11-28T09:17:11.029Z,11
2022-11-28T09:18:11.002Z,12
2022-11-28T09:19:11.002Z,9
2022-11-28T09:20:10.993Z,9
2022-11-28T09:21:11.014Z,10
2022-11-28T09:22:11.008Z,8
2022-11-28T09:23:10.999Z,10
2022-11-28T09:24:10.996Z,8
2022-11-28T09:26:10.995Z,9
2022-11-28T09:27:10.999Z,8
2022-11-28T09:28:10.995Z,8
2022-11-28T09:29:11.015Z,11
2022-11-28T09:30:11.025Z,10
2022-11-28T09:31:11.106Z,10
2022-11-28T09:32:10.999Z,8
2022-11-28T09:33:11.000Z,9
2022-11-28T09:34:11.012Z,11
2022-11-28T09:35:11.039Z,8
2022-11-28T09:36:11.016Z,8
2022-11-28T09:37:11.010Z,9
2022-11-28T09:38:11.018Z,9
2022-11-28T09:39:11.009Z,10
2022-11-28T09:40:13.669Z,8
2022-11-28T09:41:11.014Z,8
2022-11-28T09:42:10.999Z,7
2022-11-28T09:43:11.025Z,8
2022-11-28T09:44:11.023Z,9
2022-11-28T09:45:11.002Z,13
2022-11-28T09:46:11.103Z,10
2022-11-28T09:47:11.006Z,8
2022-11-28T09:48:11.014Z,10
2022-11-28T09:49:11.005Z,10
2022-11-28T09:50:11.001Z,8
2022-11-28T09:51:11.004Z,8
2022-11-28T09:52:11.061Z,11
2022-11-28T09:53:11.019Z,10
2022-11-28T09:54:11.017Z,12
2022-11-28T09:55:11.015Z,14
2022-11-28T09:56:11.019Z,12
2022-11-28T09:58:11.027Z,8
2022-11-28T09:59:11.016Z,11
2022-11-28T10:00:11.021Z,12
2022-11-28T10:01:11.004Z,12
2022-11-28T10:02:11.006Z,13
2022-11-28T10:03:11.111Z,11
2022-11-28T10:04:11.134Z,12
2022-11-28T10:05:11.157Z,12
2022-11-28T10:06:11.033Z,19
2022-11-28T10:07:11.014Z,15
2022-11-28T10:08:11.070Z,15
2022-11-28T10:09:11.012Z,14
2022-11-28T10:10:11.076Z,11
2022-11-28T10:11:11.006Z,11
2022-11-28T10:12:11.010Z,9
2022-11-28T10:13:11.013Z,10
2022-11-28T10:14:11.016Z,9
2022-11-28T10:15:11.015Z,10
2022-11-28T10:16:11.022Z,10
2022-11-28T10:17:11.087Z,10
2022-11-28T10:18:11.025Z,9
2022-11-28T10:19:25.549Z,8
2022-11-28T10:20:11.025Z,10
2022-11-28T10:21:11.011Z,9
2022-11-28T10:22:11.018Z,9
2022-11-28T10:23:11.029Z,9
2022-11-28T10:24:11.031Z,8
2022-11-28T10:25:11.033Z,8
2022-11-28T10:26:11.026Z,9
2022-11-28T10:27:11.080Z,11
2022-11-28T10:28:11.046Z,9
2022-11-28T10:29:11.015Z,10
2022-11-28T10:30:11.014Z,9
2022-11-28T10:31:11.090Z,9
2022-11-28T10:32:11.058Z,9
2022-11-28T10:33:11.033Z,10
2022-11-28T10:34:11.025Z,10
2022-11-28T10:35:11.012Z,9
2022-11-28T10:36:11.031Z,11
2022-11-28T10:37:11.036Z,9
2022-11-28T10:38:11.026Z,10
2022-11-28T10:39:11.405Z,9
2022-11-28T10:40:11.041Z,9
2022-11-28T10:41:11.043Z,9
2022-11-28T10:42:11.037Z,7
2022-11-28T10:43:11.037Z,8
2022-11-28T10:44:11.035Z,10
2022-11-28T10:45:11.018Z,13
2022-11-28T10:46:11.065Z,11
2022-11-28T10:47:11.020Z,12
2022-11-28T10:48:38.146Z,11
2022-11-28T10:49:11.065Z,11
2022-11-28T10:50:11.033Z,12
2022-11-28T10:51:11.017Z,9
2022-11-28T10:52:11.039Z,10
2022-11-28T10:53:11.031Z,10
2022-11-28T10:54:11.046Z,8
2022-11-28T10:55:11.042Z,12
2022-11-28T10:56:11.781Z,9
2022-11-28T10:57:11.039Z,8
2022-11-28T10:58:11.013Z,9
2022-11-28T10:59:11.020Z,8
2022-11-28T11:00:11.026Z,9
2022-11-28T11:01:11.097Z,14
2022-11-28T11:02:11.011Z,10
2022-11-28T11:03:11.039Z,11
2022-11-28T11:04:11.096Z,8
2022-11-28T11:05:11.051Z,10
2022-11-28T11:06:11.042Z,9
2022-11-28T11:07:16.221Z,10
2022-11-28T11:08:11.072Z,11
2022-11-28T11:09:11.032Z,11
2022-11-28T11:10:11.056Z,10
2022-11-28T11:11:11.041Z,11
2022-11-28T11:12:11.037Z,10
2022-11-28T11:13:11.025Z,10
2022-11-28T11:14:11.026Z,11
2022-11-28T11:15:11.026Z,11
2022-11-28T11:16:11.108Z,10
2022-11-28T11:17:11.024Z,11
2022-11-28T11:18:11.078Z,9
2022-11-28T11:19:11.070Z,8
2022-11-28T11:20:11.041Z,9
2022-11-28T11:21:11.040Z,10
2022-11-28T11:22:11.022Z,12
2022-11-28T11:23:11.033Z,9
2022-11-28T11:24:11.028Z,9
2022-11-28T11:25:11.028Z,9
2022-11-28T11:26:11.044Z,10
2022-11-28T11:27:11.042Z,12
2022-11-28T11:28:11.039Z,11
2022-11-28T11:29:11.033Z,10
2022-11-28T11:30:11.051Z,11
2022-11-28T11:31:11.082Z,10
2022-11-28T11:32:11.030Z,10
2022-11-28T11:33:11.036Z,10
2022-11-28T11:34:11.023Z,12
2022-11-28T11:35:11.103Z,11
2022-11-28T11:36:11.031Z,10
2022-11-28T11:37:11.027Z,12
2022-11-28T11:38:11.038Z,9
2022-11-28T11:39:11.038Z,9
2022-11-28T11:40:11.058Z,12
2022-11-28T11:41:11.037Z,10
2022-11-28T11:42:11.033Z,11
2022-11-28T11:43:11.036Z,12
2022-11-28T11:44:11.030Z,11
2022-11-28T11:45:11.038Z,10
2022-11-28T11:46:11.177Z,13
2022-11-28T11:47:11.037Z,12
2022-11-28T11:48:11.036Z,10
2022-11-28T11:49:11.061Z,11
2022-11-28T11:50:11.097Z,10
2022-11-28T11:51:11.061Z,14
2022-11-28T11:52:11.040Z,12
2022-11-28T11:53:11.037Z,9
2022-11-28T11:54:11.038Z,12
2022-11-28T11:55:11.070Z,10
2022-11-28T11:56:11.067Z,10
2022-11-28T11:57:31.937Z,10
2022-11-28T11:58:11.030Z,10
2022-11-28T11:59:11.072Z,9
2022-11-28T12:00:11.913Z,9
2022-11-28T12:01:11.041Z,11
2022-11-28T12:02:11.069Z,9
2022-11-28T12:03:11.262Z,11
2022-11-28T12:04:37.179Z,11
2022-11-28T12:05:11.041Z,10
2022-11-28T12:06:15.301Z,9
2022-11-28T12:07:11.069Z,12
2022-11-28T12:08:11.055Z,10
2022-11-28T12:09:11.072Z,11
2022-11-28T12:10:11.057Z,8
2022-11-28T12:11:11.061Z,8
2022-11-28T12:12:11.041Z,13
2022-11-28T12:14:11.047Z,10
2022-11-28T12:15:11.060Z,10
2022-11-28T12:16:11.142Z,9
2022-11-28T12:18:11.055Z,9
2022-11-28T12:19:11.067Z,10
2022-11-28T12:20:11.078Z,10
2022-11-28T12:21:11.099Z,10
2022-11-28T12:22:11.075Z,13
2022-11-28T12:24:11.063Z,11
2022-11-28T12:25:11.059Z,10
2022-11-28T12:26:11.062Z,11
2022-11-28T12:27:11.059Z,10
2022-11-28T12:28:11.046Z,10
2022-11-28T12:29:11.043Z,11
2022-11-28T12:30:11.105Z,12
2022-11-28T12:31:11.148Z,13
2022-11-28T12:32:11.063Z,13
2022-11-28T12:33:11.061Z,11
2022-11-28T12:34:11.079Z,12
2022-11-28T12:35:11.072Z,11
2022-11-28T12:36:11.074Z,11
2022-11-28T12:37:11.063Z,12
2022-11-28T12:38:12.014Z,11
2022-11-28T12:39:11.064Z,10
2022-11-28T12:40:11.210Z,10
2022-11-28T12:41:11.075Z,9
2022-11-28T12:42:11.085Z,10
2022-11-28T12:43:11.051Z,13
2022-11-28T12:44:11.056Z,13
2022-11-28T12:45:11.098Z,11
2022-11-28T12:46:11.142Z,14
2022-11-28T12:47:11.064Z,14
2022-11-28T12:48:11.063Z,11
2022-11-28T12:49:11.063Z,12
2022-11-28T12:50:11.127Z,11
2022-11-28T12:51:11.055Z,13
2022-11-28T12:52:11.091Z,10
2022-11-28T12:53:11.096Z,11
2022-11-28T12:54:11.053Z,10
2022-11-28T12:55:11.051Z,11
2022-11-28T12:56:11.070Z,12
2022-11-28T12:57:11.090Z,11
2022-11-28T12:58:11.086Z,10
2022-11-28T12:59:11.065Z,11
2022-11-28T13:01:11.072Z,10
2022-11-28T13:02:11.113Z,12
2022-11-28T13:03:11.199Z,11
2022-11-28T13:04:11.073Z,12
2022-11-28T13:05:11.077Z,10
2022-11-28T13:06:11.087Z,9
2022-11-28T13:07:11.067Z,11
2022-11-28T13:08:11.060Z,13
2022-11-28T13:09:11.072Z,11
2022-11-28T13:10:11.072Z,9
2022-11-28T13:11:11.066Z,11
2022-11-28T13:12:11.083Z,12
2022-11-28T13:13:11.065Z,11
2022-11-28T13:14:11.069Z,12
2022-11-28T13:15:11.074Z,12
2022-11-28T13:16:11.132Z,11
2022-11-28T13:17:11.141Z,14
2022-11-28T13:18:11.065Z,10
2022-11-28T13:19:11.062Z,9
2022-11-28T13:20:11.078Z,10
2022-11-28T13:21:11.071Z,10
2022-11-28T13:22:11.080Z,11
2022-11-28T13:23:11.108Z,11
2022-11-28T13:24:11.064Z,9
2022-11-28T13:25:11.072Z,11
2022-11-28T13:26:11.079Z,10
2022-11-28T13:27:11.068Z,10
2022-11-28T13:28:11.064Z,11
2022-11-28T13:29:11.130Z,10
2022-11-28T13:30:11.082Z,9
2022-11-28T13:31:11.183Z,11
2022-11-28T13:32:11.074Z,10
2022-11-28T13:33:11.067Z,11
2022-11-28T13:34:11.129Z,11
2022-11-28T13:35:11.084Z,9
2022-11-28T13:36:11.102Z,10
2022-11-28T13:38:36.930Z,10
2022-11-28T13:39:12.860Z,9
2022-11-28T13:40:11.077Z,10
2022-11-28T13:41:28.535Z,9
2022-11-28T13:42:36.486Z,9
2022-11-28T13:43:11.112Z,9
2022-11-28T13:44:11.085Z,10
2022-11-28T13:45:11.082Z,9
2022-11-28T13:46:11.167Z,10
2022-11-28T13:47:11.074Z,9
2022-11-28T13:48:11.086Z,9
2022-11-28T13:49:15.463Z,9
2022-11-28T13:50:11.098Z,10
2022-11-28T13:51:18.247Z,11
2022-11-28T13:52:11.080Z,11
2022-11-28T13:53:12.587Z,10
2022-11-28T13:54:11.650Z,12
2022-11-28T13:55:11.070Z,8
2022-11-28T13:56:11.076Z,9
2022-11-28T13:57:11.081Z,8
2022-11-28T13:58:11.091Z,10
2022-11-28T13:59:11.071Z,10
2022-11-28T14:01:11.088Z,12
2022-11-28T14:02:11.138Z,9
2022-11-28T14:03:11.155Z,9
2022-11-28T14:04:11.084Z,10
2022-11-28T14:05:11.104Z,7
2022-11-28T14:06:11.086Z,7
2022-11-28T14:07:11.073Z,7
2022-11-28T14:08:11.156Z,7
2022-11-28T14:09:11.095Z,8
2022-11-28T14:10:11.102Z,8
2022-11-28T14:11:11.078Z,6
2022-11-28T14:12:11.089Z,6
2022-11-28T14:13:11.104Z,7
2022-11-28T14:14:11.091Z,8
2022-11-28T14:15:11.088Z,8
2022-11-28T14:16:11.160Z,7
2022-11-28T14:18:39.148Z,6
2022-11-28T14:19:11.087Z,9
2022-11-28T14:20:11.076Z,7
2022-11-28T14:21:11.100Z,7
2022-11-28T14:22:11.113Z,8
2022-11-28T14:23:11.105Z,7
2022-11-28T14:24:11.101Z,7
2022-11-28T14:25:11.130Z,11
2022-11-28T14:26:11.096Z,9
2022-11-28T14:27:11.093Z,7
2022-11-28T14:28:11.084Z,8
2022-11-28T14:29:11.095Z,7
2022-11-28T14:30:11.090Z,8
2022-11-28T14:31:11.198Z,8
2022-11-28T14:32:29.624Z,8
2022-11-28T14:33:11.108Z,8
2022-11-28T14:34:11.096Z,8
2022-11-28T14:35:11.081Z,7
2022-11-28T14:36:11.078Z,9
2022-11-28T14:37:11.101Z,8
2022-11-28T14:38:16.656Z,8
2022-11-28T14:39:11.190Z,7
2022-11-28T14:40:11.103Z,8
2022-11-28T14:41:11.079Z,8
2022-11-28T14:42:11.101Z,8
2022-11-28T14:43:11.100Z,9
2022-11-28T14:44:11.087Z,11
2022-11-28T14:45:11.157Z,9
2022-11-28T14:46:11.155Z,9
2022-11-28T14:47:11.100Z,10
2022-11-28T14:48:11.148Z,9
2022-11-28T14:49:11.155Z,9
2022-11-28T14:50:11.086Z,9
2022-11-28T14:51:11.106Z,9
2022-11-28T14:52:37.197Z,11